Lanham, West Virginia
Current Conditions -  °F | °C
As of 9:54 PM on Tuesday 21 Oct 2014 (Local Time) from KCRW Reporting Station
Overcast Overcast  
Wind Chill: 44°   Ceiling: 2900
Heat Index: 47°   Visibility: 10mi
Dew Point: 45°   Wind: 7mph
Humidity: 93%   Direction: 330°NNW
Pressure: 30.09"   Gusts: NA
Location:  38.5242°N, 81.7911°W
Report Text: KCRW 220154Z 33006KT 10SM SCT018 BKN029 OVC040 08/07 A3009 RMK AO2 RAE53 SLP189 P0000 T00830072
Loading
Personal Weather Stations






























Interactive Weather Map
Tropical Storm Tracking
New forecast layout! Learn more

10-Day Weather Forecast

Advertisements
Track Severe Weather on mobile